TAF Text Data
IDs:
Format:
Raw Decoded Include METAR

Data at: 1346 UTC 27 Nov 2021

KPSM 271125Z 2712/2812 28016G25KT P6SM OVC030
  FM271400 28017G26KT P6SM BKN100
  FM280000 28011KT P6SM SKC